createdAt,value
2023-01-23T00:12:08.825Z,22.281
2023-01-23T00:27:10.780Z,22.094
2023-01-23T00:42:12.717Z,21.976
2023-01-23T00:57:14.644Z,20.925
2023-01-23T01:12:16.582Z,21.184
2023-01-23T01:27:18.501Z,22.041
2023-01-23T01:42:20.526Z,22.322
2023-01-23T01:57:22.458Z,22.796
2023-01-23T02:12:24.519Z,22.57
2023-01-23T02:27:26.426Z,21.645
2023-01-23T02:42:28.346Z,22.342
2023-01-23T02:57:30.297Z,22.343
2023-01-23T03:12:32.487Z,21.446
2023-01-23T03:27:34.423Z,22.124
2023-01-23T03:42:36.307Z,20.829
2023-01-23T03:57:38.285Z,21.735
2023-01-23T04:12:40.243Z,21.931
2023-01-23T04:27:42.145Z,21.262
2023-01-23T04:42:44.083Z,22.019
2023-01-23T04:57:46.036Z,20.855
2023-01-23T05:12:47.948Z,21.641
2023-01-23T05:27:49.955Z,19.185
2023-01-23T05:42:51.889Z,22.434
2023-01-23T05:57:53.782Z,22.249
2023-01-23T06:12:55.725Z,21.78
2023-01-23T06:27:57.665Z,20.696
2023-01-23T06:42:59.561Z,21.131
2023-01-23T06:58:01.446Z,21.269
2023-01-23T07:13:03.475Z,21.779
2023-01-23T07:28:05.472Z,22.077
2023-01-23T07:43:07.422Z,21.963
2023-01-23T07:58:09.326Z,20.578
2023-01-23T08:13:11.226Z,21.132
2023-01-23T08:28:13.144Z,20.209
2023-01-23T08:43:15.134Z,20.879
2023-01-23T08:58:17.054Z,20.065
2023-01-23T09:13:19.048Z,20.736
2023-01-23T09:28:20.944Z,19.991
2023-01-23T09:43:22.922Z,20.502
2023-01-23T09:58:24.899Z,19.986
2023-01-23T10:13:26.847Z,20.658
2023-01-23T10:28:28.832Z,20.006
2023-01-23T10:43:30.760Z,19.591
2023-01-23T10:58:32.714Z,19.382
2023-01-23T11:13:34.632Z,19.177
2023-01-23T11:28:36.592Z,20.455
2023-01-23T11:43:38.515Z,20.703
2023-01-23T11:58:49.429Z,21.65
2023-01-23T12:13:52.142Z,21.252
2023-01-23T12:28:54.208Z,22.333
2023-01-23T12:43:56.140Z,21.763
2023-01-23T12:58:58.103Z,22.508
2023-01-23T13:14:00.936Z,22.641
2023-01-23T13:29:04.101Z,22.862
2023-01-23T13:44:06.121Z,22.9
2023-01-23T14:31:25.926Z,23.274
2023-01-23T14:46:28.086Z,25.306
2023-01-23T15:01:30.089Z,25.566
2023-01-23T15:16:32.117Z,23.461
2023-01-23T15:31:34.272Z,23.951
2023-01-23T15:46:36.275Z,22.83
2023-01-23T16:01:38.268Z,23.007
2023-01-23T16:16:40.467Z,22.325
2023-01-23T16:31:42.635Z,22.306
2023-01-23T16:46:44.725Z,21.906
2023-01-23T17:01:46.732Z,21.907
2023-01-23T17:16:48.794Z,21.685
2023-01-23T17:31:50.995Z,21.657
2023-01-23T17:46:53.103Z,21.604
2023-01-23T18:01:55.104Z,21.246
2023-01-23T18:16:57.036Z,22.24
2023-01-23T18:31:59.087Z,24.478
2023-01-23T18:47:01.129Z,22.999
2023-01-23T19:02:03.180Z,23.216
2023-01-23T19:17:05.154Z,21.63
2023-01-23T19:32:07.354Z,22.118
2023-01-23T19:47:09.312Z,21.02
2023-01-23T20:02:11.354Z,21.428
2023-01-23T20:17:13.490Z,20.531
2023-01-23T20:32:15.584Z,20.704
2023-01-23T20:47:17.526Z,21.044
2023-01-23T21:02:19.435Z,21.158
2023-01-23T21:17:21.396Z,22.337
2023-01-23T21:32:23.310Z,21.979
2023-01-23T21:47:25.252Z,21.28
2023-01-23T22:02:27.288Z,21.039
2023-01-23T22:17:29.274Z,21.296
2023-01-23T22:32:31.168Z,22.031
2023-01-23T22:47:33.097Z,21.978
2023-01-23T23:02:35.054Z,22.041
2023-01-23T23:17:37.054Z,21.498
2023-01-23T23:32:39.005Z,21.902
2023-01-23T23:47:40.903Z,21.569
